createdAt,value
2019-01-20T00:00:37.855Z,25.83
2019-01-20T00:03:03.757Z,23.63
2019-01-20T00:05:29.787Z,23.70
2019-01-20T00:07:55.660Z,23.40
2019-01-20T00:10:21.511Z,23.77
2019-01-20T00:12:47.439Z,25.60
2019-01-20T00:15:17.876Z,24.23
2019-01-20T00:17:43.777Z,25.33
2019-01-20T00:20:09.713Z,25.10
2019-01-20T00:22:35.566Z,26.63
2019-01-20T00:25:01.514Z,27.13
2019-01-20T00:27:27.474Z,28.97
2019-01-20T00:29:53.328Z,29.00
2019-01-20T00:32:19.192Z,28.50
2019-01-20T00:34:45.098Z,28.50
2019-01-20T00:37:10.956Z,27.27
2019-01-20T00:39:36.898Z,26.63
2019-01-20T00:42:02.867Z,26.10
2019-01-20T00:44:28.768Z,25.00
2019-01-20T00:46:54.681Z,26.53
2019-01-20T00:49:20.553Z,24.70
2019-01-20T00:51:46.440Z,25.40
2019-01-20T00:54:12.999Z,24.97
2019-01-20T00:56:38.860Z,24.30
2019-01-20T00:59:04.763Z,24.17
2019-01-20T01:01:30.630Z,22.63
2019-01-20T01:03:56.762Z,23.60
2019-01-20T01:06:22.671Z,23.60
2019-01-20T01:08:48.550Z,22.40
2019-01-20T01:11:14.423Z,22.97
2019-01-20T01:13:40.283Z,22.27
2019-01-20T01:16:06.272Z,22.87
2019-01-20T01:18:32.173Z,21.37
2019-01-20T01:20:58.026Z,22.73
2019-01-20T01:23:23.928Z,23.90
2019-01-20T01:25:49.792Z,25.00
2019-01-20T01:28:15.787Z,24.50
2019-01-20T01:30:41.668Z,24.13
2019-01-20T01:33:07.554Z,24.00
2019-01-20T01:35:33.477Z,23.93
2019-01-20T01:37:59.326Z,24.33
2019-01-20T01:40:25.197Z,25.50
2019-01-20T01:42:51.142Z,24.50
2019-01-20T01:45:18.292Z,24.53
2019-01-20T01:47:44.188Z,23.77
2019-01-20T01:50:11.049Z,24.47
2019-01-20T01:52:36.949Z,24.13
2019-01-20T01:55:04.432Z,23.37
2019-01-20T01:57:30.409Z,23.07
2019-01-20T01:59:56.284Z,23.37
2019-01-20T02:02:22.148Z,24.30
2019-01-20T02:04:48.039Z,22.93
2019-01-20T02:07:13.896Z,23.57
2019-01-20T02:09:39.799Z,23.83
2019-01-20T02:12:05.776Z,24.23
2019-01-20T02:14:31.697Z,23.97
2019-01-20T02:17:00.833Z,24.03
2019-01-20T02:19:26.701Z,24.77
2019-01-20T02:21:52.599Z,24.93
2019-01-20T02:24:18.457Z,23.23
2019-01-20T02:26:44.465Z,22.47
2019-01-20T02:29:10.351Z,23.50
2019-01-20T02:31:36.215Z,22.40
2019-01-20T02:34:02.161Z,22.00
2019-01-20T02:36:28.003Z,22.50
2019-01-20T02:38:54.009Z,21.50
2019-01-20T02:41:19.879Z,22.40
2019-01-20T02:43:45.755Z,21.57
2019-01-20T02:46:11.699Z,20.83
2019-01-20T02:48:37.585Z,21.80
2019-01-20T02:51:03.507Z,22.10
2019-01-20T02:53:29.395Z,20.47
2019-01-20T02:55:55.251Z,21.90
2019-01-20T02:58:21.141Z,21.30
2019-01-20T03:00:47.024Z,22.23
2019-01-20T03:03:13.853Z,21.27
2019-01-20T03:05:39.705Z,21.60
2019-01-20T03:08:05.697Z,22.33
2019-01-20T03:10:31.902Z,23.00
2019-01-20T03:12:57.778Z,22.63
2019-01-20T03:15:23.646Z,23.27
2019-01-20T03:17:49.805Z,23.73
2019-01-20T03:20:18.118Z,23.00
2019-01-20T03:22:44.034Z,22.73
2019-01-20T03:25:12.294Z,23.37
2019-01-20T03:27:38.193Z,23.63
2019-01-20T03:30:07.909Z,23.73
2019-01-20T03:32:33.793Z,23.87
2019-01-20T03:34:59.816Z,23.63
2019-01-20T03:37:25.742Z,23.97
2019-01-20T03:39:51.655Z,23.80
2019-01-20T03:42:17.509Z,24.17
2019-01-20T03:44:43.493Z,24.60
2019-01-20T03:47:09.413Z,25.23
2019-01-20T03:49:35.289Z,25.67
2019-01-20T03:52:01.161Z,24.47
2019-01-20T03:54:27.027Z,24.40
2019-01-20T03:56:52.921Z,23.77
2019-01-20T03:59:18.818Z,21.97
2019-01-20T04:01:44.915Z,23.07
2019-01-20T04:04:10.855Z,22.57
2019-01-20T04:06:36.720Z,22.93
2019-01-20T04:09:06.174Z,21.60
2019-01-20T04:11:32.078Z,21.77
2019-01-20T04:13:57.942Z,21.73
2019-01-20T04:16:23.866Z,20.90
2019-01-20T04:18:49.771Z,21.73
2019-01-20T04:21:15.651Z,21.57
2019-01-20T04:23:41.693Z,21.60
2019-01-20T04:26:07.583Z,22.20
2019-01-20T04:28:33.442Z,22.67
2019-01-20T04:30:59.607Z,21.93
2019-01-20T04:33:25.451Z,23.30
2019-01-20T04:35:51.330Z,23.23
2019-01-20T04:38:17.258Z,23.90
2019-01-20T04:40:43.114Z,23.40
2019-01-20T04:43:08.979Z,23.57
2019-01-20T04:45:34.910Z,24.63
2019-01-20T04:48:00.824Z,24.63
2019-01-20T04:50:26.694Z,24.97
2019-01-20T04:52:52.577Z,25.60
2019-01-20T04:55:18.464Z,26.13
2019-01-20T04:57:46.263Z,26.13
2019-01-20T05:00:14.802Z,26.77
2019-01-20T05:02:40.699Z,25.43
2019-01-20T05:05:06.554Z,26.67
2019-01-20T05:07:32.478Z,26.13
2019-01-20T05:09:58.354Z,25.90
2019-01-20T05:12:24.207Z,24.67
2019-01-20T05:14:50.097Z,24.63
2019-01-20T05:17:16.192Z,24.07
2019-01-20T05:19:45.828Z,25.30
2019-01-20T05:22:11.743Z,25.17
2019-01-20T05:24:37.676Z,24.00
2019-01-20T05:27:03.609Z,24.90
2019-01-20T05:29:29.472Z,25.00
2019-01-20T05:31:55.357Z,23.53
2019-01-20T05:34:21.289Z,25.23
2019-01-20T05:36:47.168Z,24.63
2019-01-20T05:39:13.023Z,25.00
2019-01-20T05:41:38.941Z,24.47
2019-01-20T05:44:04.796Z,24.07
2019-01-20T05:46:30.710Z,23.90
2019-01-20T05:48:56.583Z,24.57
2019-01-20T05:51:22.431Z,24.30
2019-01-20T05:53:48.346Z,25.20
2019-01-20T05:56:14.186Z,24.87
2019-01-20T05:58:40.173Z,24.83
2019-01-20T06:01:06.082Z,25.30
2019-01-20T06:03:31.979Z,25.33
2019-01-20T06:05:57.886Z,24.00
2019-01-20T06:08:23.775Z,24.80
2019-01-20T06:10:49.631Z,24.83
2019-01-20T06:13:15.505Z,25.13
2019-01-20T06:15:41.541Z,25.13
2019-01-20T06:18:08.111Z,24.83
2019-01-20T06:20:34.074Z,25.63
2019-01-20T06:22:59.955Z,25.80
2019-01-20T06:25:25.842Z,25.93
2019-01-20T06:27:51.827Z,25.53
2019-01-20T06:30:25.881Z,24.97
2019-01-20T06:32:51.945Z,25.40
2019-01-20T06:35:17.795Z,25.83
2019-01-20T06:37:43.676Z,24.97
2019-01-20T06:40:09.653Z,26.53
2019-01-20T06:42:35.543Z,26.80
2019-01-20T06:45:01.751Z,26.23
2019-01-20T06:47:27.668Z,25.80
2019-01-20T06:49:53.582Z,26.87
2019-01-20T06:52:19.550Z,26.63
2019-01-20T06:54:45.424Z,27.10
2019-01-20T06:57:11.443Z,27.77
2019-01-20T06:59:37.311Z,27.13
2019-01-20T07:02:03.287Z,26.57
2019-01-20T07:04:29.216Z,27.10
2019-01-20T07:06:55.088Z,27.67
2019-01-20T07:09:20.964Z,27.43
2019-01-20T07:11:46.876Z,28.23
2019-01-20T07:14:12.738Z,27.50
2019-01-20T07:16:38.626Z,27.20
2019-01-20T07:19:04.569Z,27.43
2019-01-20T07:21:30.471Z,27.63
2019-01-20T07:23:56.358Z,27.37
2019-01-20T07:26:22.234Z,27.57
2019-01-20T07:28:48.106Z,28.37
2019-01-20T07:31:13.960Z,28.80
2019-01-20T07:33:39.893Z,30.33
2019-01-20T07:36:05.803Z,28.77
2019-01-20T07:38:31.685Z,28.77
2019-01-20T07:40:57.614Z,29.20
2019-01-20T07:43:23.504Z,29.63
2019-01-20T07:45:49.344Z,28.47
2019-01-20T07:48:15.286Z,29.87
2019-01-20T07:50:41.160Z,29.47
2019-01-20T07:53:07.083Z,28.50
2019-01-20T07:55:32.940Z,29.77
2019-01-20T07:57:58.950Z,30.20
2019-01-20T08:00:24.871Z,29.33
2019-01-20T08:02:50.786Z,29.63
2019-01-20T08:05:17.025Z,30.00
2019-01-20T08:07:43.095Z,28.77
2019-01-20T08:10:14.954Z,27.97
2019-01-20T08:12:40.938Z,28.93
2019-01-20T08:15:09.571Z,29.97
2019-01-20T08:17:35.493Z,29.60
2019-01-20T08:20:01.695Z,30.43
2019-01-20T08:22:27.809Z,29.93
2019-01-20T08:24:53.721Z,31.30
2019-01-20T08:27:19.591Z,29.37
2019-01-20T08:29:45.433Z,31.33
2019-01-20T08:32:11.378Z,30.77
2019-01-20T08:34:37.284Z,30.90
2019-01-20T08:37:04.349Z,29.27
2019-01-20T08:39:30.393Z,30.80
2019-01-20T08:41:56.384Z,31.63
2019-01-20T08:44:25.091Z,31.37
2019-01-20T08:46:52.407Z,31.87
2019-01-20T08:49:18.301Z,31.27
2019-01-20T08:51:44.244Z,31.93
2019-01-20T08:54:10.164Z,30.90
2019-01-20T08:56:36.200Z,31.63
2019-01-20T08:59:02.183Z,33.07
2019-01-20T09:01:28.083Z,29.93
2019-01-20T09:03:53.955Z,30.43
2019-01-20T09:06:20.162Z,30.73
2019-01-20T09:08:46.055Z,29.73
2019-01-20T09:11:12.267Z,30.93
2019-01-20T09:13:39.836Z,29.87
2019-01-20T09:16:06.530Z,30.60
2019-01-20T09:18:32.377Z,29.80
2019-01-20T09:20:58.321Z,29.30
2019-01-20T09:23:27.890Z,30.20
2019-01-20T09:25:53.913Z,30.40
2019-01-20T09:28:19.787Z,29.30
2019-01-20T09:30:48.893Z,28.63
2019-01-20T09:33:14.841Z,29.83
2019-01-20T09:35:40.747Z,29.20
2019-01-20T09:38:06.730Z,29.17
2019-01-20T09:40:32.616Z,28.70
2019-01-20T09:42:58.592Z,28.43
2019-01-20T09:45:27.999Z,28.53
2019-01-20T09:47:54.029Z,29.53
2019-01-20T09:50:20.013Z,28.83
2019-01-20T09:52:45.901Z,37.07
2019-01-20T09:55:12.002Z,29.30
2019-01-20T09:57:37.933Z,28.40
2019-01-20T10:00:07.752Z,27.20
2019-01-20T10:02:33.622Z,28.67
2019-01-20T10:04:59.518Z,27.83
2019-01-20T10:07:25.427Z,28.10
2019-01-20T10:09:51.371Z,29.57
2019-01-20T10:12:17.345Z,27.27
2019-01-20T10:14:43.297Z,27.20
2019-01-20T10:17:09.188Z,27.87
2019-01-20T10:19:35.071Z,29.03
2019-01-20T10:22:00.981Z,28.10
2019-01-20T10:24:26.999Z,27.47
2019-01-20T10:26:52.893Z,27.60
2019-01-20T10:29:18.892Z,27.70
2019-01-20T10:31:44.806Z,26.53
2019-01-20T10:34:10.691Z,28.50
2019-01-20T10:36:36.660Z,28.30
2019-01-20T10:39:05.418Z,27.77
2019-01-20T10:41:31.374Z,28.27
2019-01-20T10:44:02.166Z,29.63
2019-01-20T10:46:25.257Z,28.53
2019-01-20T10:48:51.138Z,28.47
2019-01-20T10:51:17.104Z,29.07
2019-01-20T10:53:43.185Z,28.17
2019-01-20T10:56:09.119Z,28.27
2019-01-20T10:58:34.978Z,28.43
2019-01-20T11:01:00.915Z,28.73
2019-01-20T11:03:26.906Z,30.13
2019-01-20T11:05:53.011Z,29.73
2019-01-20T11:08:19.069Z,29.60
2019-01-20T11:10:44.963Z,31.43
2019-01-20T11:13:10.841Z,29.33
2019-01-20T11:15:36.788Z,28.23
2019-01-20T11:18:02.785Z,27.50
2019-01-20T11:20:28.660Z,28.77
2019-01-20T11:22:54.703Z,27.90
2019-01-20T11:25:26.660Z,28.33
2019-01-20T11:27:52.523Z,27.93
2019-01-20T11:30:18.430Z,29.00
2019-01-20T11:32:44.285Z,29.70
2019-01-20T11:35:16.604Z,29.23
2019-01-20T11:37:42.549Z,30.13
2019-01-20T11:40:10.026Z,30.40
2019-01-20T11:42:35.893Z,29.37
2019-01-20T11:45:03.063Z,29.33
2019-01-20T11:47:28.963Z,30.33
2019-01-20T11:49:54.827Z,28.30
2019-01-20T11:52:20.753Z,29.73
2019-01-20T11:54:46.631Z,29.30
2019-01-20T11:57:12.495Z,29.73
2019-01-20T11:59:38.397Z,28.17
2019-01-20T12:02:04.357Z,30.30
2019-01-20T12:04:30.212Z,28.87
2019-01-20T12:06:56.089Z,28.70
2019-01-20T12:09:22.169Z,28.40
2019-01-20T12:11:48.164Z,29.70
2019-01-20T12:14:14.012Z,29.00
2019-01-20T12:16:40.096Z,28.10
2019-01-20T12:19:06.009Z,29.47
2019-01-20T12:21:31.845Z,29.47
2019-01-20T12:23:57.807Z,28.03
2019-01-20T12:26:23.760Z,27.93
2019-01-20T12:28:49.628Z,28.67
2019-01-20T12:31:15.639Z,28.53
2019-01-20T12:33:41.560Z,28.73
2019-01-20T12:36:07.465Z,27.27
2019-01-20T12:38:33.342Z,27.53
2019-01-20T12:40:59.396Z,27.07
2019-01-20T12:43:25.234Z,27.10
2019-01-20T12:45:51.124Z,27.30
2019-01-20T12:48:17.484Z,25.87
2019-01-20T12:50:43.393Z,26.47
2019-01-20T12:53:09.363Z,27.73
2019-01-20T12:55:35.205Z,26.70
2019-01-20T12:58:01.100Z,26.47
2019-01-20T13:00:27.102Z,25.67
2019-01-20T13:02:53.441Z,26.47
2019-01-20T13:05:19.382Z,26.03
2019-01-20T13:07:45.313Z,25.83
2019-01-20T13:10:13.416Z,26.13
2019-01-20T13:12:39.282Z,25.90
2019-01-20T13:15:08.255Z,26.67
2019-01-20T13:17:34.133Z,26.17
2019-01-20T13:20:00.017Z,26.97
2019-01-20T13:22:25.896Z,26.60
2019-01-20T13:24:51.817Z,26.63
2019-01-20T13:27:17.729Z,27.53
2019-01-20T13:29:43.635Z,26.57
2019-01-20T13:32:09.504Z,26.07
2019-01-20T13:34:35.425Z,27.40
2019-01-20T13:37:01.304Z,27.87
2019-01-20T13:39:27.160Z,26.60
2019-01-20T13:41:53.134Z,26.80
2019-01-20T13:44:19.085Z,27.70
2019-01-20T13:46:45.069Z,28.23
2019-01-20T13:49:11.203Z,27.10
2019-01-20T13:51:37.124Z,26.70
2019-01-20T13:54:02.982Z,26.23
2019-01-20T13:56:28.848Z,26.37
2019-01-20T13:58:54.755Z,28.13
2019-01-20T14:01:20.669Z,27.13
2019-01-20T14:03:46.557Z,26.30
2019-01-20T14:06:12.438Z,25.93
2019-01-20T14:08:44.260Z,25.87
2019-01-20T14:11:06.212Z,26.50
2019-01-20T14:13:32.096Z,26.13
2019-01-20T14:15:57.957Z,26.80
2019-01-20T14:18:23.896Z,28.73
2019-01-20T14:20:49.827Z,28.03
2019-01-20T14:23:15.757Z,27.97
2019-01-20T14:25:41.626Z,28.77
2019-01-20T14:28:11.092Z,28.53
2019-01-20T14:30:36.997Z,28.90
2019-01-20T14:33:03.329Z,30.47
2019-01-20T14:35:29.263Z,29.07
2019-01-20T14:37:57.360Z,28.53
2019-01-20T14:40:23.755Z,28.40
2019-01-20T14:42:52.440Z,28.97
2019-01-20T14:45:18.438Z,29.67
2019-01-20T14:47:44.448Z,29.03
2019-01-20T14:50:14.256Z,30.50
2019-01-20T14:52:40.129Z,29.70
2019-01-20T14:55:08.047Z,30.27
2019-01-20T14:57:33.910Z,30.37
2019-01-20T14:59:59.836Z,30.57
2019-01-20T15:02:25.721Z,29.77
2019-01-20T15:04:51.594Z,30.03
2019-01-20T15:07:18.062Z,29.67
2019-01-20T15:09:44.046Z,29.47
2019-01-20T15:12:09.941Z,30.93
2019-01-20T15:14:36.042Z,29.63
2019-01-20T15:17:01.908Z,30.20
2019-01-20T15:19:27.777Z,29.87
2019-01-20T15:21:53.736Z,30.97
2019-01-20T15:24:19.592Z,31.20
2019-01-20T15:26:45.466Z,29.77
2019-01-20T15:29:11.379Z,30.83
2019-01-20T15:31:37.249Z,31.10
2019-01-20T15:34:03.231Z,30.83
2019-01-20T15:36:29.104Z,31.87
2019-01-20T15:38:55.094Z,31.67
2019-01-20T15:41:20.970Z,32.47
2019-01-20T15:43:46.833Z,32.33
2019-01-20T15:46:12.720Z,33.17
2019-01-20T15:48:38.602Z,34.13
2019-01-20T15:51:04.472Z,33.37
2019-01-20T15:53:30.350Z,36.98
2019-01-20T15:55:56.248Z,34.97
2019-01-20T15:58:22.150Z,35.30
2019-01-20T16:00:48.049Z,34.87
2019-01-20T16:03:13.921Z,35.07
2019-01-20T16:05:39.783Z,34.60
2019-01-20T16:08:05.696Z,35.33
2019-01-20T16:10:31.625Z,35.20
2019-01-20T16:12:57.484Z,35.67
2019-01-20T16:15:31.505Z,36.60
2019-01-20T16:17:57.489Z,37.53
2019-01-20T16:20:24.324Z,37.20
2019-01-20T16:22:50.155Z,37.13
2019-01-20T16:25:18.420Z,40.57
2019-01-20T16:27:44.339Z,38.90
2019-01-20T16:30:13.548Z,38.63
2019-01-20T16:32:39.449Z,39.67
2019-01-20T16:35:08.799Z,39.30
2019-01-20T16:37:34.693Z,40.60
2019-01-20T16:40:00.586Z,39.40
2019-01-20T16:42:26.501Z,39.53
2019-01-20T16:44:52.367Z,41.50
2019-01-20T16:47:18.357Z,39.93
2019-01-20T16:49:44.343Z,39.47
2019-01-20T16:52:10.797Z,40.30
2019-01-20T16:54:36.782Z,39.83
2019-01-20T16:57:02.682Z,41.30
2019-01-20T16:59:28.556Z,41.33
2019-01-20T17:01:54.532Z,43.80
2019-01-20T17:04:20.407Z,42.60
2019-01-20T17:06:46.291Z,44.20
2019-01-20T17:09:12.175Z,44.03
2019-01-20T17:11:38.062Z,44.47
2019-01-20T17:14:04.704Z,44.43
2019-01-20T17:16:30.592Z,44.33
2019-01-20T17:18:56.452Z,43.63
2019-01-20T17:21:22.435Z,42.60
2019-01-20T17:23:48.319Z,43.43
2019-01-20T17:26:14.327Z,43.67
2019-01-20T17:28:40.222Z,43.97
2019-01-20T17:31:09.651Z,44.80
2019-01-20T17:33:35.567Z,45.47
2019-01-20T17:36:01.440Z,45.03
2019-01-20T17:38:27.317Z,43.77
2019-01-20T17:40:53.246Z,43.87
2019-01-20T17:43:19.098Z,47.43
2019-01-20T17:45:48.548Z,43.07
2019-01-20T17:48:12.830Z,41.13
2019-01-20T17:50:40.225Z,43.37
2019-01-20T17:53:07.196Z,47.07
2019-01-20T17:55:33.243Z,52.73
2019-01-20T17:57:59.133Z,57.30
2019-01-20T18:00:29.121Z,58.80
2019-01-20T18:02:55.061Z,55.60
2019-01-20T18:05:22.826Z,52.50
2019-01-20T18:07:48.706Z,52.97
2019-01-20T18:10:14.694Z,51.00
2019-01-20T18:12:40.563Z,50.67
2019-01-20T18:15:09.433Z,55.03
2019-01-20T18:17:39.158Z,53.70
2019-01-20T18:20:08.753Z,57.13
2019-01-20T18:22:34.624Z,58.00
2019-01-20T18:25:00.648Z,59.17
2019-01-20T18:27:26.506Z,57.70
2019-01-20T18:29:52.377Z,60.07
2019-01-20T18:32:18.355Z,59.70
2019-01-20T18:34:44.241Z,56.93
2019-01-20T18:37:10.117Z,56.90
2019-01-20T18:39:36.016Z,54.60
2019-01-20T18:42:01.894Z,56.27
2019-01-20T18:44:27.856Z,56.20
2019-01-20T18:46:53.732Z,56.57
2019-01-20T18:49:19.683Z,56.23
2019-01-20T18:51:45.664Z,53.20
2019-01-20T18:54:11.668Z,54.83
2019-01-20T18:56:37.562Z,55.93
2019-01-20T18:59:03.475Z,57.13
2019-01-20T19:01:29.333Z,56.87
2019-01-20T19:03:55.199Z,54.83
2019-01-20T19:06:21.151Z,55.43
2019-01-20T19:08:47.073Z,56.93
2019-01-20T19:11:12.961Z,54.87
2019-01-20T19:13:38.971Z,57.13
2019-01-20T19:16:08.903Z,56.83
2019-01-20T19:18:32.821Z,59.77
2019-01-20T19:20:58.691Z,58.77
2019-01-20T19:23:24.625Z,60.17
2019-01-20T19:25:50.496Z,61.37
2019-01-20T19:28:16.370Z,61.30
2019-01-20T19:30:42.305Z,58.33
2019-01-20T19:33:08.238Z,56.63
2019-01-20T19:35:34.120Z,56.47
2019-01-20T19:38:00.125Z,56.83
2019-01-20T19:40:26.096Z,56.40
2019-01-20T19:42:52.236Z,55.63
2019-01-20T19:45:19.449Z,55.37
2019-01-20T19:47:45.382Z,56.10
2019-01-20T19:50:13.017Z,58.07
2019-01-20T19:52:38.912Z,59.30
2019-01-20T19:55:09.334Z,60.17
2019-01-20T19:57:35.421Z,57.27
2019-01-20T20:00:01.292Z,57.57
2019-01-20T20:02:27.173Z,58.17
2019-01-20T20:04:53.130Z,58.23
2019-01-20T20:07:18.985Z,58.90
2019-01-20T20:09:45.269Z,58.97
2019-01-20T20:12:11.127Z,59.83
2019-01-20T20:14:38.028Z,58.37
2019-01-20T20:17:03.923Z,63.03
2019-01-20T20:19:29.816Z,62.73
2019-01-20T20:21:55.821Z,62.87
2019-01-20T20:24:25.528Z,61.17
2019-01-20T20:26:49.493Z,59.83
2019-01-20T20:29:15.519Z,61.73
2019-01-20T20:31:41.459Z,58.90
2019-01-20T20:34:07.353Z,60.50
2019-01-20T20:36:33.231Z,63.47
2019-01-20T20:39:02.173Z,61.63
2019-01-20T20:41:28.094Z,59.50
2019-01-20T20:43:54.138Z,60.60
2019-01-20T20:46:20.029Z,59.73
2019-01-20T20:48:45.994Z,61.40
2019-01-20T20:51:12.141Z,60.40
2019-01-20T20:53:38.035Z,62.13
2019-01-20T20:56:03.948Z,59.90
2019-01-20T20:58:30.060Z,58.73
2019-01-20T21:00:55.938Z,60.03
2019-01-20T21:03:21.868Z,59.43
2019-01-20T21:05:48.657Z,59.00
2019-01-20T21:08:14.680Z,61.47
2019-01-20T21:10:40.783Z,61.23
2019-01-20T21:13:06.725Z,59.60
2019-01-20T21:15:32.600Z,59.50
2019-01-20T21:17:58.481Z,60.70
2019-01-20T21:20:24.386Z,60.20
2019-01-20T21:22:50.249Z,58.80
2019-01-20T21:25:16.177Z,58.37
2019-01-20T21:27:42.097Z,60.90
2019-01-20T21:30:14.985Z,61.33
2019-01-20T21:32:40.937Z,60.13
2019-01-20T21:35:06.897Z,60.67
2019-01-20T21:37:32.768Z,58.97
2019-01-20T21:39:58.668Z,59.53
2019-01-20T21:42:24.523Z,61.60
2019-01-20T21:44:50.622Z,61.37
2019-01-20T21:47:16.504Z,61.33
2019-01-20T21:49:42.380Z,61.83
2019-01-20T21:52:08.326Z,60.67
2019-01-20T21:54:34.197Z,61.10
2019-01-20T21:57:00.051Z,63.07
2019-01-20T21:59:25.957Z,59.97
2019-01-20T22:01:51.850Z,61.83
2019-01-20T22:04:17.725Z,59.10
2019-01-20T22:06:43.592Z,61.00
2019-01-20T22:09:09.474Z,59.97
2019-01-20T22:11:35.622Z,58.00
2019-01-20T22:14:01.644Z,59.80
2019-01-20T22:16:27.522Z,58.20
2019-01-20T22:18:53.431Z,58.20
2019-01-20T22:21:19.317Z,59.57
2019-01-20T22:23:45.229Z,59.37
2019-01-20T22:26:11.137Z,59.60
2019-01-20T22:28:37.004Z,59.90
2019-01-20T22:31:02.884Z,60.00
2019-01-20T22:33:28.773Z,59.40
2019-01-20T22:35:54.659Z,60.03
2019-01-20T22:38:20.595Z,60.13
2019-01-20T22:40:46.522Z,60.07
2019-01-20T22:43:12.342Z,59.43
2019-01-20T22:45:38.269Z,60.30
2019-01-20T22:48:04.231Z,60.60
2019-01-20T22:50:30.177Z,58.23
2019-01-20T22:52:56.513Z,59.07
2019-01-20T22:55:22.547Z,59.77
2019-01-20T22:57:48.381Z,59.80
2019-01-20T23:00:20.345Z,58.03
2019-01-20T23:02:46.600Z,58.50
2019-01-20T23:05:12.686Z,58.13
2019-01-20T23:07:38.582Z,59.17
2019-01-20T23:10:05.360Z,60.17
2019-01-20T23:12:31.235Z,60.37
2019-01-20T23:14:57.125Z,58.87
2019-01-20T23:17:23.067Z,58.43
2019-01-20T23:19:48.945Z,55.47
2019-01-20T23:22:14.832Z,57.37
2019-01-20T23:24:40.751Z,56.27
2019-01-20T23:27:06.742Z,55.90
2019-01-20T23:29:32.617Z,54.27
2019-01-20T23:31:58.532Z,58.07
2019-01-20T23:34:24.422Z,57.60
2019-01-20T23:36:54.068Z,56.10
2019-01-20T23:39:19.947Z,57.03
2019-01-20T23:41:45.805Z,56.90
2019-01-20T23:44:11.946Z,57.73
2019-01-20T23:46:37.879Z,54.77
2019-01-20T23:49:03.727Z,57.80
2019-01-20T23:51:29.628Z,55.00
2019-01-20T23:53:55.495Z,55.40
2019-01-20T23:56:21.437Z,54.07
2019-01-20T23:58:47.388Z,53.13
